sensor_id;sensor_type;location;lat;lon;timestamp;P1;durP1;ratioP1;P2;durP2;ratioP2
21356;SDS011;10836;53.068;18.234;2023-02-01T00:02:16;22.33;;;3.73;;
21356;SDS011;10836;53.068;18.234;2023-02-01T00:04:43;20.90;;;4.23;;
21356;SDS011;10836;53.068;18.234;2023-02-01T00:07:10;12.67;;;3.23;;
21356;SDS011;10836;53.068;18.234;2023-02-01T00:09:39;16.17;;;3.17;;
21356;SDS011;10836;53.068;18.234;2023-02-01T00:12:06;19.83;;;3.27;;
21356;SDS011;10836;53.068;18.234;2023-02-01T00:14:33;22.07;;;3.83;;
21356;SDS011;10836;53.068;18.234;2023-02-01T00:17:05;15.23;;;3.83;;
21356;SDS011;10836;53.068;18.234;2023-02-01T00:19:33;17.23;;;3.40;;
21356;SDS011;10836;53.068;18.234;2023-02-01T00:22:00;19.20;;;3.73;;
21356;SDS011;10836;53.068;18.234;2023-02-01T00:24:27;17.07;;;3.43;;
21356;SDS011;10836;53.068;18.234;2023-02-01T00:26:54;16.70;;;4.87;;
21356;SDS011;10836;53.068;18.234;2023-02-01T00:29:22;22.63;;;3.73;;
21356;SDS011;10836;53.068;18.234;2023-02-01T00:31:50;17.20;;;3.37;;
21356;SDS011;10836;53.068;18.234;2023-02-01T00:34:17;16.50;;;3.63;;
21356;SDS011;10836;53.068;18.234;2023-02-01T00:36:45;14.70;;;2.87;;
21356;SDS011;10836;53.068;18.234;2023-02-01T00:39:12;18.23;;;3.37;;
21356;SDS011;10836;53.068;18.234;2023-02-01T00:41:40;26.90;;;4.03;;
21356;SDS011;10836;53.068;18.234;2023-02-01T00:44:07;18.00;;;3.80;;
21356;SDS011;10836;53.068;18.234;2023-02-01T00:46:34;16.87;;;3.57;;
21356;SDS011;10836;53.068;18.234;2023-02-01T00:49:01;19.37;;;3.70;;
21356;SDS011;10836;53.068;18.234;2023-02-01T00:51:29;16.57;;;3.00;;
21356;SDS011;10836;53.068;18.234;2023-02-01T00:53:56;17.03;;;2.93;;
21356;SDS011;10836;53.068;18.234;2023-02-01T00:56:24;25.53;;;5.73;;
21356;SDS011;10836;53.068;18.234;2023-02-01T00:58:53;17.00;;;3.50;;
21356;SDS011;10836;53.068;18.234;2023-02-01T01:01:24;15.27;;;2.97;;
21356;SDS011;10836;53.068;18.234;2023-02-01T01:03:57;17.10;;;2.97;;
21356;SDS011;10836;53.068;18.234;2023-02-01T01:06:26;15.13;;;2.47;;
21356;SDS011;10836;53.068;18.234;2023-02-01T01:08:56;26.70;;;5.90;;
21356;SDS011;10836;53.068;18.234;2023-02-01T01:11:26;20.37;;;5.27;;
21356;SDS011;10836;53.068;18.234;2023-02-01T01:13:55;18.67;;;3.13;;
21356;SDS011;10836;53.068;18.234;2023-02-01T01:16:24;27.27;;;4.77;;
21356;SDS011;10836;53.068;18.234;2023-02-01T01:18:54;21.97;;;3.43;;
21356;SDS011;10836;53.068;18.234;2023-02-01T01:21:22;10.63;;;2.40;;
21356;SDS011;10836;53.068;18.234;2023-02-01T01:23:49;13.23;;;3.30;;
21356;SDS011;10836;53.068;18.234;2023-02-01T01:26:17;21.43;;;2.80;;
21356;SDS011;10836;53.068;18.234;2023-02-01T01:28:46;17.07;;;3.47;;
21356;SDS011;10836;53.068;18.234;2023-02-01T01:31:14;14.93;;;3.07;;
21356;SDS011;10836;53.068;18.234;2023-02-01T01:33:43;17.43;;;2.77;;
21356;SDS011;10836;53.068;18.234;2023-02-01T01:36:11;15.23;;;3.03;;
21356;SDS011;10836;53.068;18.234;2023-02-01T01:38:39;17.83;;;3.27;;
21356;SDS011;10836;53.068;18.234;2023-02-01T01:41:08;24.47;;;3.47;;
21356;SDS011;10836;53.068;18.234;2023-02-01T01:46:31;16.87;;;3.83;;
21356;SDS011;10836;53.068;18.234;2023-02-01T01:49:12;16.90;;;3.43;;
21356;SDS011;10836;53.068;18.234;2023-02-01T01:51:51;17.97;;;3.63;;
21356;SDS011;10836;53.068;18.234;2023-02-01T01:54:25;13.50;;;3.40;;
21356;SDS011;10836;53.068;18.234;2023-02-01T01:56:57;20.40;;;4.33;;
21356;SDS011;10836;53.068;18.234;2023-02-01T01:59:27;17.87;;;3.13;;
21356;SDS011;10836;53.068;18.234;2023-02-01T02:01:58;19.77;;;3.87;;
21356;SDS011;10836;53.068;18.234;2023-02-01T02:04:25;19.90;;;3.33;;
21356;SDS011;10836;53.068;18.234;2023-02-01T02:06:57;17.33;;;3.23;;
21356;SDS011;10836;53.068;18.234;2023-02-01T02:09:28;14.73;;;2.87;;
21356;SDS011;10836;53.068;18.234;2023-02-01T02:11:55;23.83;;;4.07;;
21356;SDS011;10836;53.068;18.234;2023-02-01T02:14:23;21.87;;;4.63;;
21356;SDS011;10836;53.068;18.234;2023-02-01T02:16:58;28.43;;;4.10;;
21356;SDS011;10836;53.068;18.234;2023-02-01T02:25:20;14.07;;;4.20;;
21356;SDS011;10836;53.068;18.234;2023-02-01T02:36:14;13.90;;;2.77;;
21356;SDS011;10836;53.068;18.234;2023-02-01T02:41:49;19.80;;;3.70;;
21356;SDS011;10836;53.068;18.234;2023-02-01T02:45:01;17.73;;;3.40;;
21356;SDS011;10836;53.068;18.234;2023-02-01T02:50:45;12.83;;;2.97;;
21356;SDS011;10836;53.068;18.234;2023-02-01T02:53:48;19.90;;;3.07;;
21356;SDS011;10836;53.068;18.234;2023-02-01T02:56:44;24.00;;;3.37;;
21356;SDS011;10836;53.068;18.234;2023-02-01T02:59:29;15.63;;;3.50;;
21356;SDS011;10836;53.068;18.234;2023-02-01T03:02:17;13.80;;;2.80;;
21356;SDS011;10836;53.068;18.234;2023-02-01T03:05:05;27.50;;;5.47;;
21356;SDS011;10836;53.068;18.234;2023-02-01T03:10:12;17.40;;;4.07;;
21356;SDS011;10836;53.068;18.234;2023-02-01T03:12:44;18.63;;;3.67;;
21356;SDS011;10836;53.068;18.234;2023-02-01T03:15:38;17.60;;;3.83;;
21356;SDS011;10836;53.068;18.234;2023-02-01T03:18:14;18.33;;;3.77;;
21356;SDS011;10836;53.068;18.234;2023-02-01T03:20:46;20.27;;;3.00;;
21356;SDS011;10836;53.068;18.234;2023-02-01T03:23:17;14.03;;;2.90;;
21356;SDS011;10836;53.068;18.234;2023-02-01T03:25:48;17.77;;;2.90;;
21356;SDS011;10836;53.068;18.234;2023-02-01T03:28:19;20.73;;;4.40;;
21356;SDS011;10836;53.068;18.234;2023-02-01T03:30:49;17.73;;;4.53;;
21356;SDS011;10836;53.068;18.234;2023-02-01T03:33:17;20.23;;;3.53;;
21356;SDS011;10836;53.068;18.234;2023-02-01T03:36:09;22.47;;;3.53;;
21356;SDS011;10836;53.068;18.234;2023-02-01T03:38:55;16.47;;;3.57;;
21356;SDS011;10836;53.068;18.234;2023-02-01T03:41:34;17.10;;;4.03;;
21356;SDS011;10836;53.068;18.234;2023-02-01T03:46:53;18.00;;;3.80;;
21356;SDS011;10836;53.068;18.234;2023-02-01T03:49:32;20.53;;;3.37;;
21356;SDS011;10836;53.068;18.234;2023-02-01T03:52:03;21.40;;;2.87;;
21356;SDS011;10836;53.068;18.234;2023-02-01T03:54:33;20.20;;;3.37;;
21356;SDS011;10836;53.068;18.234;2023-02-01T03:57:05;17.03;;;3.23;;
21356;SDS011;10836;53.068;18.234;2023-02-01T03:59:40;18.23;;;3.70;;
21356;SDS011;10836;53.068;18.234;2023-02-01T04:02:08;16.90;;;3.20;;
21356;SDS011;10836;53.068;18.234;2023-02-01T04:04:35;17.07;;;3.00;;
21356;SDS011;10836;53.068;18.234;2023-02-01T04:07:02;20.53;;;3.33;;
21356;SDS011;10836;53.068;18.234;2023-02-01T04:09:30;15.30;;;2.50;;
21356;SDS011;10836;53.068;18.234;2023-02-01T04:11:57;17.27;;;2.87;;
21356;SDS011;10836;53.068;18.234;2023-02-01T04:14:24;23.57;;;3.37;;
21356;SDS011;10836;53.068;18.234;2023-02-01T04:16:50;17.73;;;4.03;;
21356;SDS011;10836;53.068;18.234;2023-02-01T04:19:18;18.67;;;3.37;;
21356;SDS011;10836;53.068;18.234;2023-02-01T04:21:44;17.87;;;3.23;;
21356;SDS011;10836;53.068;18.234;2023-02-01T04:24:12;20.23;;;3.43;;
21356;SDS011;10836;53.068;18.234;2023-02-01T04:26:38;17.50;;;3.30;;
21356;SDS011;10836;53.068;18.234;2023-02-01T04:29:05;19.63;;;3.37;;
21356;SDS011;10836;53.068;18.234;2023-02-01T04:31:32;14.93;;;3.03;;
21356;SDS011;10836;53.068;18.234;2023-02-01T04:34:02;16.80;;;3.47;;
21356;SDS011;10836;53.068;18.234;2023-02-01T04:36:29;15.17;;;2.77;;
21356;SDS011;10836;53.068;18.234;2023-02-01T04:38:56;12.30;;;2.50;;
21356;SDS011;10836;53.068;18.234;2023-02-01T04:41:23;19.40;;;3.27;;
21356;SDS011;10836;53.068;18.234;2023-02-01T04:43:50;18.77;;;3.40;;
21356;SDS011;10836;53.068;18.234;2023-02-01T04:46:19;19.30;;;4.07;;
21356;SDS011;10836;53.068;18.234;2023-02-01T04:48:46;22.03;;;3.03;;
21356;SDS011;10836;53.068;18.234;2023-02-01T04:51:13;16.23;;;3.83;;
21356;SDS011;10836;53.068;18.234;2023-02-01T04:53:42;18.43;;;4.03;;
21356;SDS011;10836;53.068;18.234;2023-02-01T04:56:09;13.07;;;2.93;;
21356;SDS011;10836;53.068;18.234;2023-02-01T04:58:36;18.57;;;3.17;;
21356;SDS011;10836;53.068;18.234;2023-02-01T05:01:03;15.53;;;3.10;;
21356;SDS011;10836;53.068;18.234;2023-02-01T05:03:32;23.40;;;3.43;;
21356;SDS011;10836;53.068;18.234;2023-02-01T05:05:59;25.13;;;3.50;;
21356;SDS011;10836;53.068;18.234;2023-02-01T05:08:27;22.40;;;3.40;;
21356;SDS011;10836;53.068;18.234;2023-02-01T05:10:55;21.50;;;2.70;;
21356;SDS011;10836;53.068;18.234;2023-02-01T05:13:22;23.70;;;4.33;;
21356;SDS011;10836;53.068;18.234;2023-02-01T05:16:07;17.03;;;2.40;;
21356;SDS011;10836;53.068;18.234;2023-02-01T05:18:34;16.57;;;3.00;;
21356;SDS011;10836;53.068;18.234;2023-02-01T05:21:01;19.57;;;3.80;;
21356;SDS011;10836;53.068;18.234;2023-02-01T05:23:29;22.90;;;4.00;;
21356;SDS011;10836;53.068;18.234;2023-02-01T05:25:59;23.73;;;3.87;;
21356;SDS011;10836;53.068;18.234;2023-02-01T05:28:27;15.03;;;2.93;;
21356;SDS011;10836;53.068;18.234;2023-02-01T05:30:55;21.67;;;4.27;;
21356;SDS011;10836;53.068;18.234;2023-02-01T05:33:22;18.27;;;3.47;;
21356;SDS011;10836;53.068;18.234;2023-02-01T05:35:49;16.43;;;3.27;;
21356;SDS011;10836;53.068;18.234;2023-02-01T05:38:17;21.03;;;3.53;;
21356;SDS011;10836;53.068;18.234;2023-02-01T05:40:44;17.70;;;3.37;;
21356;SDS011;10836;53.068;18.234;2023-02-01T05:43:16;18.23;;;3.87;;
21356;SDS011;10836;53.068;18.234;2023-02-01T05:45:43;22.53;;;5.57;;
21356;SDS011;10836;53.068;18.234;2023-02-01T05:48:10;14.30;;;3.30;;
21356;SDS011;10836;53.068;18.234;2023-02-01T05:50:37;13.60;;;3.27;;
21356;SDS011;10836;53.068;18.234;2023-02-01T05:53:08;15.33;;;3.27;;
21356;SDS011;10836;53.068;18.234;2023-02-01T05:55:36;19.60;;;3.37;;
21356;SDS011;10836;53.068;18.234;2023-02-01T05:58:03;19.73;;;3.70;;
21356;SDS011;10836;53.068;18.234;2023-02-01T06:00:31;14.67;;;2.93;;
21356;SDS011;10836;53.068;18.234;2023-02-01T06:02:58;21.47;;;3.90;;
21356;SDS011;10836;53.068;18.234;2023-02-01T06:05:25;19.53;;;3.77;;
21356;SDS011;10836;53.068;18.234;2023-02-01T06:07:52;24.37;;;3.33;;
21356;SDS011;10836;53.068;18.234;2023-02-01T06:10:19;14.73;;;3.40;;
21356;SDS011;10836;53.068;18.234;2023-02-01T06:12:47;19.80;;;3.37;;
21356;SDS011;10836;53.068;18.234;2023-02-01T06:15:14;21.40;;;4.03;;
21356;SDS011;10836;53.068;18.234;2023-02-01T06:17:45;18.87;;;4.03;;
21356;SDS011;10836;53.068;18.234;2023-02-01T06:20:13;19.37;;;3.77;;
21356;SDS011;10836;53.068;18.234;2023-02-01T06:22:41;20.23;;;3.60;;
21356;SDS011;10836;53.068;18.234;2023-02-01T06:25:09;20.83;;;3.47;;
21356;SDS011;10836;53.068;18.234;2023-02-01T06:27:36;22.97;;;3.77;;
21356;SDS011;10836;53.068;18.234;2023-02-01T06:30:04;18.53;;;4.23;;
21356;SDS011;10836;53.068;18.234;2023-02-01T06:32:33;21.83;;;3.53;;
21356;SDS011;10836;53.068;18.234;2023-02-01T06:35:00;16.53;;;3.80;;
21356;SDS011;10836;53.068;18.234;2023-02-01T06:37:27;15.63;;;2.73;;
21356;SDS011;10836;53.068;18.234;2023-02-01T06:39:55;16.07;;;3.40;;
21356;SDS011;10836;53.068;18.234;2023-02-01T06:42:23;24.87;;;3.70;;
21356;SDS011;10836;53.068;18.234;2023-02-01T06:44:49;24.33;;;4.57;;
21356;SDS011;10836;53.068;18.234;2023-02-01T06:47:16;20.03;;;3.33;;
21356;SDS011;10836;53.068;18.234;2023-02-01T06:49:43;13.93;;;2.87;;
21356;SDS011;10836;53.068;18.234;2023-02-01T06:52:10;14.80;;;2.90;;
21356;SDS011;10836;53.068;18.234;2023-02-01T06:54:37;17.60;;;3.23;;
21356;SDS011;10836;53.068;18.234;2023-02-01T06:57:04;13.20;;;3.50;;
21356;SDS011;10836;53.068;18.234;2023-02-01T06:59:31;16.30;;;3.30;;
21356;SDS011;10836;53.068;18.234;2023-02-01T07:01:58;15.83;;;3.77;;
21356;SDS011;10836;53.068;18.234;2023-02-01T07:04:25;15.37;;;3.07;;
21356;SDS011;10836;53.068;18.234;2023-02-01T07:06:52;16.47;;;3.80;;
21356;SDS011;10836;53.068;18.234;2023-02-01T07:09:19;19.70;;;3.67;;
21356;SDS011;10836;53.068;18.234;2023-02-01T07:11:46;18.70;;;3.70;;
21356;SDS011;10836;53.068;18.234;2023-02-01T07:14:13;17.00;;;4.17;;
21356;SDS011;10836;53.068;18.234;2023-02-01T07:16:40;23.80;;;4.47;;
21356;SDS011;10836;53.068;18.234;2023-02-01T07:19:07;12.53;;;3.80;;
21356;SDS011;10836;53.068;18.234;2023-02-01T07:21:34;18.30;;;3.07;;
21356;SDS011;10836;53.068;18.234;2023-02-01T07:24:01;18.20;;;3.43;;
21356;SDS011;10836;53.068;18.234;2023-02-01T07:26:28;22.73;;;5.07;;
21356;SDS011;10836;53.068;18.234;2023-02-01T07:28:55;18.23;;;3.80;;
21356;SDS011;10836;53.068;18.234;2023-02-01T07:31:22;20.43;;;3.70;;
21356;SDS011;10836;53.068;18.234;2023-02-01T07:33:51;13.77;;;3.47;;
21356;SDS011;10836;53.068;18.234;2023-02-01T07:36:19;17.90;;;3.30;;
21356;SDS011;10836;53.068;18.234;2023-02-01T07:38:46;21.70;;;3.73;;
21356;SDS011;10836;53.068;18.234;2023-02-01T07:41:17;19.30;;;3.87;;
21356;SDS011;10836;53.068;18.234;2023-02-01T07:43:44;18.07;;;3.67;;
21356;SDS011;10836;53.068;18.234;2023-02-01T07:46:12;26.97;;;4.00;;
21356;SDS011;10836;53.068;18.234;2023-02-01T07:48:39;15.47;;;3.30;;
21356;SDS011;10836;53.068;18.234;2023-02-01T07:51:10;14.13;;;2.83;;
21356;SDS011;10836;53.068;18.234;2023-02-01T07:53:39;18.37;;;4.10;;
21356;SDS011;10836;53.068;18.234;2023-02-01T07:56:13;9.63;;;2.80;;
21356;SDS011;10836;53.068;18.234;2023-02-01T07:58:43;13.60;;;3.50;;
21356;SDS011;10836;53.068;18.234;2023-02-01T08:01:14;18.87;;;3.93;;
21356;SDS011;10836;53.068;18.234;2023-02-01T08:03:47;12.13;;;3.00;;
21356;SDS011;10836;53.068;18.234;2023-02-01T08:06:16;11.67;;;2.90;;
21356;SDS011;10836;53.068;18.234;2023-02-01T08:08:42;14.50;;;2.83;;
21356;SDS011;10836;53.068;18.234;2023-02-01T08:11:12;16.57;;;3.30;;
21356;SDS011;10836;53.068;18.234;2023-02-01T08:13:40;13.97;;;4.23;;
21356;SDS011;10836;53.068;18.234;2023-02-01T08:16:08;14.90;;;3.03;;
21356;SDS011;10836;53.068;18.234;2023-02-01T08:18:36;15.83;;;2.97;;
21356;SDS011;10836;53.068;18.234;2023-02-01T08:21:08;12.30;;;2.60;;
21356;SDS011;10836;53.068;18.234;2023-02-01T08:23:48;14.83;;;2.73;;
21356;SDS011;10836;53.068;18.234;2023-02-01T08:28:49;14.00;;;3.00;;
21356;SDS011;10836;53.068;18.234;2023-02-01T08:31:19;14.87;;;3.23;;
21356;SDS011;10836;53.068;18.234;2023-02-01T08:33:49;11.90;;;2.97;;
21356;SDS011;10836;53.068;18.234;2023-02-01T08:36:18;18.07;;;3.23;;
21356;SDS011;10836;53.068;18.234;2023-02-01T08:38:45;12.03;;;3.03;;
21356;SDS011;10836;53.068;18.234;2023-02-01T08:41:14;14.20;;;3.17;;
21356;SDS011;10836;53.068;18.234;2023-02-01T08:43:45;11.00;;;2.77;;
21356;SDS011;10836;53.068;18.234;2023-02-01T08:46:14;17.67;;;3.17;;
21356;SDS011;10836;53.068;18.234;2023-02-01T08:48:42;16.53;;;3.33;;
21356;SDS011;10836;53.068;18.234;2023-02-01T08:51:11;15.30;;;3.07;;
21356;SDS011;10836;53.068;18.234;2023-02-01T08:53:40;16.70;;;3.40;;
21356;SDS011;10836;53.068;18.234;2023-02-01T08:56:09;12.53;;;2.97;;
21356;SDS011;10836;53.068;18.234;2023-02-01T08:58:38;14.87;;;3.57;;
21356;SDS011;10836;53.068;18.234;2023-02-01T09:01:06;10.23;;;2.57;;
21356;SDS011;10836;53.068;18.234;2023-02-01T09:03:34;14.70;;;3.53;;
21356;SDS011;10836;53.068;18.234;2023-02-01T09:06:06;13.60;;;3.13;;
21356;SDS011;10836;53.068;18.234;2023-02-01T09:08:35;11.97;;;2.57;;
21356;SDS011;10836;53.068;18.234;2023-02-01T09:11:08;12.00;;;2.53;;
21356;SDS011;10836;53.068;18.234;2023-02-01T09:13:39;10.93;;;2.70;;
21356;SDS011;10836;53.068;18.234;2023-02-01T09:16:06;6.40;;;2.10;;
21356;SDS011;10836;53.068;18.234;2023-02-01T09:18:33;9.37;;;2.30;;
21356;SDS011;10836;53.068;18.234;2023-02-01T09:21:04;6.43;;;2.20;;
21356;SDS011;10836;53.068;18.234;2023-02-01T09:23:33;9.20;;;2.30;;
21356;SDS011;10836;53.068;18.234;2023-02-01T09:26:01;10.23;;;2.40;;
21356;SDS011;10836;53.068;18.234;2023-02-01T09:28:29;12.00;;;2.43;;
21356;SDS011;10836;53.068;18.234;2023-02-01T09:30:56;10.97;;;2.47;;
21356;SDS011;10836;53.068;18.234;2023-02-01T09:33:25;15.97;;;3.50;;
21356;SDS011;10836;53.068;18.234;2023-02-01T09:35:57;13.60;;;3.10;;
21356;SDS011;10836;53.068;18.234;2023-02-01T09:38:25;18.30;;;4.03;;
21356;SDS011;10836;53.068;18.234;2023-02-01T09:40:54;9.80;;;2.80;;
21356;SDS011;10836;53.068;18.234;2023-02-01T09:48:46;11.77;;;3.20;;
21356;SDS011;10836;53.068;18.234;2023-02-01T09:51:16;14.50;;;3.27;;
21356;SDS011;10836;53.068;18.234;2023-02-01T09:53:48;17.80;;;3.60;;
21356;SDS011;10836;53.068;18.234;2023-02-01T09:57:37;25.50;;;4.03;;
21356;SDS011;10836;53.068;18.234;2023-02-01T09:59:42;18.60;;;3.77;;
21356;SDS011;10836;53.068;18.234;2023-02-01T10:02:14;20.00;;;3.40;;
21356;SDS011;10836;53.068;18.234;2023-02-01T10:04:44;14.37;;;2.83;;
21356;SDS011;10836;53.068;18.234;2023-02-01T10:07:16;20.10;;;4.07;;
21356;SDS011;10836;53.068;18.234;2023-02-01T10:10:01;18.07;;;5.23;;
21356;SDS011;10836;53.068;18.234;2023-02-01T10:26:21;13.40;;;3.20;;
21356;SDS011;10836;53.068;18.234;2023-02-01T10:28:51;13.67;;;2.83;;
21356;SDS011;10836;53.068;18.234;2023-02-01T10:31:28;13.70;;;3.03;;
21356;SDS011;10836;53.068;18.234;2023-02-01T10:33:59;14.67;;;3.57;;
21356;SDS011;10836;53.068;18.234;2023-02-01T10:36:29;14.63;;;3.73;;
21356;SDS011;10836;53.068;18.234;2023-02-01T10:39:02;15.63;;;3.47;;
21356;SDS011;10836;53.068;18.234;2023-02-01T10:41:32;17.80;;;4.40;;
21356;SDS011;10836;53.068;18.234;2023-02-01T10:44:03;14.53;;;3.10;;
21356;SDS011;10836;53.068;18.234;2023-02-01T10:46:33;15.27;;;3.23;;
21356;SDS011;10836;53.068;18.234;2023-02-01T10:49:02;15.27;;;2.97;;
21356;SDS011;10836;53.068;18.234;2023-02-01T10:51:38;14.83;;;3.13;;
21356;SDS011;10836;53.068;18.234;2023-02-01T10:54:11;21.70;;;3.87;;
21356;SDS011;10836;53.068;18.234;2023-02-01T10:56:43;17.30;;;4.10;;
21356;SDS011;10836;53.068;18.234;2023-02-01T10:59:18;20.00;;;3.57;;
21356;SDS011;10836;53.068;18.234;2023-02-01T11:01:50;11.57;;;3.03;;
21356;SDS011;10836;53.068;18.234;2023-02-01T11:04:25;19.27;;;4.60;;
21356;SDS011;10836;53.068;18.234;2023-02-01T11:07:04;21.90;;;4.37;;
21356;SDS011;10836;53.068;18.234;2023-02-01T11:09:38;18.87;;;3.07;;
21356;SDS011;10836;53.068;18.234;2023-02-01T11:12:20;18.07;;;4.17;;
21356;SDS011;10836;53.068;18.234;2023-02-01T11:17:46;18.37;;;3.90;;
21356;SDS011;10836;53.068;18.234;2023-02-01T11:20:39;24.10;;;4.53;;
21356;SDS011;10836;53.068;18.234;2023-02-01T11:23:16;16.80;;;3.93;;
21356;SDS011;10836;53.068;18.234;2023-02-01T11:28:21;19.83;;;3.90;;
21356;SDS011;10836;53.068;18.234;2023-02-01T11:30:53;18.97;;;4.67;;
21356;SDS011;10836;53.068;18.234;2023-02-01T11:33:30;25.27;;;4.37;;
21356;SDS011;10836;53.068;18.234;2023-02-01T11:36:09;23.27;;;4.30;;
21356;SDS011;10836;53.068;18.234;2023-02-01T11:38:40;18.37;;;4.47;;
21356;SDS011;10836;53.068;18.234;2023-02-01T11:41:22;17.57;;;4.27;;
21356;SDS011;10836;53.068;18.234;2023-02-01T11:43:52;22.83;;;5.40;;
21356;SDS011;10836;53.068;18.234;2023-02-01T11:46:29;20.50;;;4.33;;
21356;SDS011;10836;53.068;18.234;2023-02-01T11:49:13;24.30;;;4.43;;
21356;SDS011;10836;53.068;18.234;2023-02-01T11:52:30;23.03;;;4.17;;
21356;SDS011;10836;53.068;18.234;2023-02-01T12:00:55;15.53;;;4.13;;
21356;SDS011;10836;53.068;18.234;2023-02-01T12:09:54;15.37;;;3.53;;
21356;SDS011;10836;53.068;18.234;2023-02-01T12:17:46;14.73;;;3.27;;
21356;SDS011;10836;53.068;18.234;2023-02-01T12:31:39;10.03;;;2.30;;
21356;SDS011;10836;53.068;18.234;2023-02-01T12:34:34;8.37;;;2.73;;
21356;SDS011;10836;53.068;18.234;2023-02-01T12:40:28;7.67;;;2.43;;
21356;SDS011;10836;53.068;18.234;2023-02-01T12:43:07;11.87;;;3.93;;
21356;SDS011;10836;53.068;18.234;2023-02-01T12:45:44;9.03;;;1.97;;
21356;SDS011;10836;53.068;18.234;2023-02-01T12:48:27;9.00;;;2.67;;
21356;SDS011;10836;53.068;18.234;2023-02-01T12:51:07;8.87;;;2.43;;
21356;SDS011;10836;53.068;18.234;2023-02-01T12:53:44;9.00;;;2.87;;
21356;SDS011;10836;53.068;18.234;2023-02-01T12:56:36;9.47;;;2.67;;
21356;SDS011;10836;53.068;18.234;2023-02-01T12:59:13;5.30;;;2.03;;
21356;SDS011;10836;53.068;18.234;2023-02-01T13:01:48;8.80;;;2.03;;
21356;SDS011;10836;53.068;18.234;2023-02-01T13:04:20;5.00;;;1.93;;
21356;SDS011;10836;53.068;18.234;2023-02-01T13:07:01;8.93;;;2.50;;
21356;SDS011;10836;53.068;18.234;2023-02-01T13:09:44;7.20;;;2.30;;
21356;SDS011;10836;53.068;18.234;2023-02-01T13:12:21;8.17;;;2.30;;
21356;SDS011;10836;53.068;18.234;2023-02-01T13:17:43;7.73;;;2.40;;
21356;SDS011;10836;53.068;18.234;2023-02-01T13:20:24;8.23;;;2.10;;
21356;SDS011;10836;53.068;18.234;2023-02-01T13:23:18;9.27;;;2.70;;
21356;SDS011;10836;53.068;18.234;2023-02-01T13:25:47;8.03;;;1.77;;
21356;SDS011;10836;53.068;18.234;2023-02-01T13:28:22;6.50;;;2.30;;
21356;SDS011;10836;53.068;18.234;2023-02-01T13:30:58;5.20;;;1.70;;
21356;SDS011;10836;53.068;18.234;2023-02-01T13:41:41;9.60;;;2.17;;
21356;SDS011;10836;53.068;18.234;2023-02-01T13:44:28;6.10;;;2.10;;
21356;SDS011;10836;53.068;18.234;2023-02-01T13:47:10;9.23;;;2.37;;
21356;SDS011;10836;53.068;18.234;2023-02-01T13:49:45;7.03;;;2.47;;
21356;SDS011;10836;53.068;18.234;2023-02-01T13:52:50;6.60;;;2.37;;
21356;SDS011;10836;53.068;18.234;2023-02-01T13:55:16;6.93;;;2.87;;
21356;SDS011;10836;53.068;18.234;2023-02-01T13:57:59;15.10;;;4.40;;
21356;SDS011;10836;53.068;18.234;2023-02-01T14:00:48;7.90;;;2.20;;
21356;SDS011;10836;53.068;18.234;2023-02-01T14:03:19;10.57;;;3.20;;
21356;SDS011;10836;53.068;18.234;2023-02-01T14:06:14;16.20;;;3.60;;
21356;SDS011;10836;53.068;18.234;2023-02-01T14:11:41;4.97;;;1.77;;
21356;SDS011;10836;53.068;18.234;2023-02-01T14:16:42;9.03;;;2.30;;
21356;SDS011;10836;53.068;18.234;2023-02-01T14:21:50;14.77;;;3.30;;
21356;SDS011;10836;53.068;18.234;2023-02-01T14:26:55;10.30;;;2.00;;
21356;SDS011;10836;53.068;18.234;2023-02-01T14:50:53;8.97;;;2.97;;
21356;SDS011;10836;53.068;18.234;2023-02-01T14:53:21;7.87;;;2.87;;
21356;SDS011;10836;53.068;18.234;2023-02-01T14:55:59;9.00;;;2.50;;
21356;SDS011;10836;53.068;18.234;2023-02-01T15:11:56;8.23;;;2.40;;
21356;SDS011;10836;53.068;18.234;2023-02-01T15:14:25;10.13;;;3.00;;
21356;SDS011;10836;53.068;18.234;2023-02-01T15:16:53;10.57;;;2.47;;
21356;SDS011;10836;53.068;18.234;2023-02-01T15:19:24;10.50;;;2.23;;
21356;SDS011;10836;53.068;18.234;2023-02-01T15:21:53;13.17;;;2.60;;
21356;SDS011;10836;53.068;18.234;2023-02-01T15:24:24;7.33;;;1.90;;
21356;SDS011;10836;53.068;18.234;2023-02-01T15:27:02;8.80;;;2.67;;
21356;SDS011;10836;53.068;18.234;2023-02-01T15:29:31;5.23;;;2.67;;
21356;SDS011;10836;53.068;18.234;2023-02-01T15:32:02;8.30;;;2.23;;
21356;SDS011;10836;53.068;18.234;2023-02-01T15:34:44;10.30;;;2.83;;
21356;SDS011;10836;53.068;18.234;2023-02-01T15:37:14;6.30;;;2.07;;
21356;SDS011;10836;53.068;18.234;2023-02-01T15:42:55;11.07;;;2.40;;
21356;SDS011;10836;53.068;18.234;2023-02-01T15:45:25;10.97;;;2.77;;
21356;SDS011;10836;53.068;18.234;2023-02-01T15:47:55;10.30;;;2.30;;
21356;SDS011;10836;53.068;18.234;2023-02-01T15:50:24;8.07;;;2.40;;
21356;SDS011;10836;53.068;18.234;2023-02-01T15:52:52;9.10;;;2.97;;
21356;SDS011;10836;53.068;18.234;2023-02-01T15:58:14;6.93;;;2.20;;
21356;SDS011;10836;53.068;18.234;2023-02-01T16:00:45;8.23;;;2.80;;
21356;SDS011;10836;53.068;18.234;2023-02-01T16:06:09;8.70;;;2.63;;
21356;SDS011;10836;53.068;18.234;2023-02-01T16:08:55;6.23;;;2.33;;
21356;SDS011;10836;53.068;18.234;2023-02-01T16:11:29;8.20;;;2.37;;
21356;SDS011;10836;53.068;18.234;2023-02-01T16:14:06;6.00;;;2.20;;
21356;SDS011;10836;53.068;18.234;2023-02-01T16:16:33;9.03;;;2.47;;
21356;SDS011;10836;53.068;18.234;2023-02-01T16:19:01;12.03;;;3.47;;
21356;SDS011;10836;53.068;18.234;2023-02-01T16:21:27;15.47;;;4.37;;
21356;SDS011;10836;53.068;18.234;2023-02-01T16:23:55;9.80;;;3.23;;
21356;SDS011;10836;53.068;18.234;2023-02-01T16:26:22;8.20;;;2.83;;
21356;SDS011;10836;53.068;18.234;2023-02-01T16:28:49;10.47;;;2.77;;
21356;SDS011;10836;53.068;18.234;2023-02-01T16:31:17;12.83;;;2.97;;
21356;SDS011;10836;53.068;18.234;2023-02-01T16:33:50;8.63;;;2.60;;
21356;SDS011;10836;53.068;18.234;2023-02-01T16:36:18;11.53;;;2.50;;
21356;SDS011;10836;53.068;18.234;2023-02-01T16:38:46;8.63;;;2.47;;
21356;SDS011;10836;53.068;18.234;2023-02-01T16:41:15;15.00;;;3.00;;
21356;SDS011;10836;53.068;18.234;2023-02-01T16:43:44;8.73;;;3.00;;
21356;SDS011;10836;53.068;18.234;2023-02-01T16:46:15;9.37;;;2.63;;
21356;SDS011;10836;53.068;18.234;2023-02-01T16:48:48;11.77;;;3.53;;
21356;SDS011;10836;53.068;18.234;2023-02-01T16:51:19;13.17;;;3.00;;
21356;SDS011;10836;53.068;18.234;2023-02-01T16:53:46;9.00;;;3.30;;
21356;SDS011;10836;53.068;18.234;2023-02-01T16:56:21;11.97;;;2.93;;
21356;SDS011;10836;53.068;18.234;2023-02-01T16:58:50;20.60;;;4.97;;
21356;SDS011;10836;53.068;18.234;2023-02-01T17:01:17;14.60;;;3.90;;
21356;SDS011;10836;53.068;18.234;2023-02-01T17:03:45;14.03;;;4.00;;
21356;SDS011;10836;53.068;18.234;2023-02-01T17:06:13;20.70;;;4.30;;
21356;SDS011;10836;53.068;18.234;2023-02-01T17:08:47;17.80;;;5.20;;
21356;SDS011;10836;53.068;18.234;2023-02-01T17:11:20;12.50;;;3.20;;
21356;SDS011;10836;53.068;18.234;2023-02-01T17:13:47;12.60;;;2.87;;
21356;SDS011;10836;53.068;18.234;2023-02-01T17:18:50;9.17;;;2.93;;
21356;SDS011;10836;53.068;18.234;2023-02-01T17:21:21;8.67;;;2.90;;
21356;SDS011;10836;53.068;18.234;2023-02-01T17:23:49;14.97;;;2.70;;
21356;SDS011;10836;53.068;18.234;2023-02-01T17:26:16;11.77;;;2.60;;